Terminal Aerodrome Forecast
Issued by NWS

Home | Current Version | Previous Version | Graphics & Text | Print | Product List | Glossary On
Versions: 1 2 3 4 5 6 7 8 9 10 11 12 13 14 15 16 17 18 19
257
FTUS42 KMHX 220150 AAA
TAFISO
TAF AMD
KISO 220150Z 2202/2224 15006KT 6SM -SHRA OVC004
     FM220300 19009KT 3SM BR OVC004
     FM220900 21009KT 1/2SM FG OVC002
     FM221300 23005KT 3SM SHRA VCTS OVC002CB
     FM222000 16009KT 6SM SHRA VCTS OVC020CB
      AMD LTD TO CLD VIS AND WIND=

USA.gov is the U.S. government's official web portal to all federal, state and local government web resources and services.